Flight Track Log - Related Links

Times and Time Zones

All times are in EDT time to prevent confusion due to time zone crossing. See the SWA3943 flight status page for this flight to view local times or setup timezone preferences in your user account.

Time Position Orientation Groundspeed Altitude Reporting Facility
EDT Latitude Longitude Course Direction KTS MPH feet Rate Location/Type
Wed 05:58:17 PM 32.8667 -96.8833 308° West 156 180 2,100  Level Dallas / Fort Worth TRACON
Wed 05:59:18 PM 32.9000 -96.9333 308° West 201 231 4,300 2,231 Climbing Dallas / Fort Worth TRACON
Wed 06:00:18 PM 32.9667 -96.9167 12° North 234 269 6,600 2,971 Climbing Dallas / Fort Worth TRACON
Wed 06:02:44 PM 32.9800 -96.7547 84° East 256 295 14,500 3,058 Climbing Fort Worth Center
Wed 06:03:44 PM 32.9172 -96.7528 179° South 204 235 17,100 2,200 Climbing Fort Worth Center
Wed 06:04:44 PM 32.8317 -96.7608 185° South 242 278 18,900 2,100 Climbing Fort Worth Center
Wed 06:05:44 PM 32.7544 -96.7686 185° South 305 351 21,300 2,450 Climbing Fort Worth Center
Wed 06:06:44 PM 32.6503 -96.7769 184° South 340 391 23,800 2,300 Climbing Fort Worth Center
Wed 06:07:44 PM 32.5564 -96.7872 185° South 345 397 25,900 2,050 Climbing Fort Worth Center
Wed 06:08:44 PM 32.4686 -96.7978 186° South 357 411 27,900 1,850 Climbing Fort Worth Center
Wed 06:09:44 PM 32.3683 -96.8058 184° South 357 411 29,600 1,700 Climbing Fort Worth Center
Wed 06:10:44 PM 32.2619 -96.8092 182° South 374 430 31,300 1,550 Climbing Fort Worth Center
Wed 06:11:44 PM 32.1553 -96.7681 162° South 393 452 32,700 1,500 Climbing Fort Worth Center
Wed 06:12:44 PM 32.0467 -96.7247 161° South 404 465 34,300 1,362 Climbing Fort Worth Center
Wed 06:15:11 PM 31.7825 -96.6214 162° South 415 478 37,400 1,321 Climbing Houston Center
Wed 06:16:13 PM 31.6733 -96.5761 161° South 412 474 38,900 774 Climbing Houston Center
Wed 06:17:15 PM 31.5475 -96.5242 161° South 408 470 39,000 48 Climbing Houston Center
Wed 06:18:18 PM 31.4394 -96.4828 162° South 406 467 39,000  Level Houston Center
Wed 06:19:20 PM 31.3294 -96.4417 162° South 408 470 39,000  Level Houston Center
Wed 06:20:22 PM 31.2183 -96.4000 162° South 412 474 39,000  Level Houston Center
Wed 06:21:24 PM 31.1056 -96.3589 163° South 418 481 39,000  Level Houston Center
Wed 06:22:26 PM 30.9950 -96.3172 162° South 413 475 39,000  Level Houston Center
Wed 06:23:28 PM 30.8853 -96.2717 160° South 416 479 39,000  Level Houston Center
Wed 06:24:30 PM 30.8033 -96.1492 128° Southeast 498 573 39,000  Level Houston Center
Wed 06:25:33 PM 30.8181 -95.9483 85° East 545 627 39,000  Level Houston Center
Wed 06:26:35 PM 30.8411 -95.7722 81° East 548 631 39,000  Level Houston Center
Wed 06:27:37 PM 30.8647 -95.5986 81° East 546 628 39,000  Level Houston Center
Wed 06:28:39 PM 30.8886 -95.4261 81° East 548 631 39,000  Level Houston Center
Wed 06:29:41 PM 30.9128 -95.2533 81° East 545 627 39,000  Level Houston Center
Wed 06:30:43 PM 30.9414 -95.0467 81° East 545 627 39,000  Level Houston Center
Wed 06:31:45 PM 30.9544 -94.8753 85° East 540 621 39,000  Level Houston Center
Wed 06:32:48 PM 30.9669 -94.7042 85° East 540 621 39,000  Level Houston Center
Wed 06:33:50 PM 30.9806 -94.5314 85° East 544 626 39,000  Level Houston Center
Wed 06:34:52 PM 30.9953 -94.3244 85° East 540 621 39,000  Level Houston Center
Wed 06:35:54 PM 31.0111 -94.1517 84° East 541 623 39,000  Level Houston Center
Wed 06:36:56 PM 31.0400 -93.9781 79° East 547 629 39,000  Level Houston Center
Wed 06:37:58 PM 31.0681 -93.7958 80° East 549 632 39,000  Level Houston Center
Wed 06:39:00 PM 31.1173 -93.6701 85° East  Level Estimated
Wed 06:40:02 PM 31.1206 -93.4439 85° East 551 634 39,000  Level Houston Center
Wed 06:41:05 PM 31.1475 -93.2692 80° East 547 629 39,000  Level Houston Center
Wed 06:42:07 PM 31.1733 -93.0931 80° East 549 632 39,000  Level Houston Center
Wed 06:43:09 PM 31.2036 -92.8817 80° East 549 632 39,000  Level Houston Center
Wed 06:44:11 PM 31.2281 -92.7047 81° East 551 634 39,000  Level Houston Center
Wed 06:45:13 PM 31.2553 -92.5267 80° East 555 639 39,000  Level Houston Center
Wed 06:46:15 PM 31.3022 -92.3542 72° East 559 643 39,000  Level Houston Center
Wed 06:47:17 PM 31.3569 -92.1864 69° East 554 638 39,000  Level Houston Center
Wed 06:48:20 PM 31.4194 -91.9903 69° East 556 640 39,000  Level Houston Center
Wed 06:49:22 PM 31.4725 -91.8217 70° East 554 638 39,000  Level Houston Center
Wed 06:50:24 PM 31.5258 -91.6528 70° East 553 636 39,000  Level Houston Center
Wed 06:51:26 PM 31.5783 -91.4847 70° East 552 635 39,000  Level Houston Center
Wed 06:52:28 PM 31.6297 -91.3169 70° East 549 632 39,000  Level Houston Center
Wed 06:53:30 PM 31.6928 -91.1153 70° East 550 633 39,000  Level Houston Center
Wed 06:54:32 PM 31.7378 -90.9683 70° East 548 631 39,000  Level Houston Center
Wed 06:55:35 PM 31.8000 -90.7658 70° East 548 631 39,000  Level Houston Center
Wed 06:56:37 PM 31.8503 -90.5983 70° East 545 627 39,000  Level Houston Center
Wed 06:57:39 PM 31.9008 -90.4294 71° East 546 628 39,000  Level Houston Center
Wed 06:58:08 PM 31.9244 -90.3550 69° East 545 627 39,000  Level Memphis Center
Wed 06:59:08 PM 31.9744 -90.1833 71° East 545 627 39,000  Level Memphis Center
Wed 07:00:08 PM 32.0283 -89.9997 71° East 545 627 39,000  Level Memphis Center
Wed 07:01:08 PM 32.0778 -89.8328 71° East 545 627 39,000  Level Memphis Center
Wed 07:02:08 PM 32.1292 -89.6681 70° East 536 617 39,000  Level Memphis Center
Wed 07:03:08 PM 32.1783 -89.4983 71° East 536 617 39,000  Level Memphis Center
Wed 07:04:08 PM 32.2272 -89.3358 70° East 536 617 39,000  Level Memphis Center
Wed 07:05:08 PM 32.2736 -89.1681 72° East 536 617 39,000 -500 Level Memphis Center
Wed 07:06:08 PM 32.3222 -89.0003 71° East 536 617 38,000 -1,550 Descending Memphis Center
Wed 07:07:08 PM 32.3683 -88.8422 71° East 531 611 35,900 -2,050 Descending Memphis Center
Wed 07:08:08 PM 32.4458 -88.7056 56° Northeast 512 589 33,900 -2,200 Descending Memphis Center
Wed 07:09:08 PM 32.5297 -88.5858 50° Northeast 480 552 31,500 -2,300 Descending Memphis Center
Wed 07:10:08 PM 32.6033 -88.4806 50° Northeast 473 544 29,300 -2,250 Descending Memphis Center
Wed 07:11:08 PM 32.6831 -88.3656 51° Northeast 456 525 27,000 -2,185 Descending Memphis Center
Wed 07:12:39 PM 32.7997 -88.1903 52° Northeast 454 522 23,800 -1,987 Descending Atlanta Center
Wed 07:13:39 PM 32.8722 -88.0800 52° Northeast 438 504 22,000 -5,400 Descending Atlanta Center
Wed 07:14:39 PM 32.9594 -87.9678 47° Northeast 424 488 13,000 -1,700 Descending Atlanta Center
Wed 07:15:39 PM 33.0164 -87.8786 53° Northeast 405 466 18,600 2,050 Climbing Atlanta Center
Wed 07:16:39 PM 33.0800 -87.7797 52° Northeast 385 443 17,100 -1,704 Descending Atlanta Center
Wed 07:17:00 PM 33.1125 -87.7389 46° Northeast 362 417 16,300 -1,600 Descending Atlanta Center
Wed 07:17:39 PM 33.1433 -87.6858 55° Northeast 372 428 15,500 -1,121 Descending Atlanta Center
Wed 07:18:31 PM 33.2003 -87.5961 53° Northeast 362 417 14,600 -1,075 Descending Atlanta Center
Wed 07:19:25 PM 33.2547 -87.5139 52° Northeast 353 406 13,600 -1,304 Descending Atlanta Center
Wed 07:20:26 PM 33.3136 -87.4219 53° Northeast 333 383 12,100 -1,655 Descending Atlanta Center
Wed 07:21:21 PM 33.3658 -87.3469 50° Northeast 330 380 10,400 -1,562 Descending Atlanta Center
Wed 07:21:39 PM 33.3789 -87.3250 55° Northeast 338 389 10,200 -1,273 Descending Atlanta Center
Wed 07:22:27 PM 33.4289 -87.2547 50° Northeast 323 372 9,000 -1,223 Descending Atlanta Center
Wed 07:23:22 PM 33.4786 -87.1844 50° Northeast 310 357 8,100 -1,000 Descending Atlanta Center
Wed 07:23:39 PM 33.4894 -87.1647 57° Northeast 316 364 7,800 -1,500 Descending Atlanta Center
Wed 07:24:22 PM 33.5286 -87.1064 51° Northeast 294 338 6,600 -1,400 Descending Atlanta Center
Wed 07:24:39 PM 33.5414 -87.0894 48° Northeast 304 350 6,400 -537 Descending Atlanta Center
Wed 07:25:29 PM 33.5869 -87.0211 51° Northeast 280 322 6,000 -205 Descending Atlanta Center
Wed 07:26:36 PM 33.6264 -86.9403 60° Northeast 263 303 6,000  Level Atlanta Center
Wed 07:26:39 PM 33.6264 -86.9403 60° Northeast 273 314 6,000 -1,600 Level Atlanta Center
Wed 07:27:36 PM 33.6658 -86.8617 59° Northeast 262 302 4,400 -1,017 Descending Atlanta Center
Wed 07:28:37 PM 33.6986 -86.7953 59° Northeast 218 251 4,000 -730 Descending Atlanta Center
Wed 07:29:31 PM 33.6831 -86.7500 112° Southeast 186 214 3,000 -939 Descending Atlanta Center
Wed 07:30:32 PM 33.6372 -86.7511 181° South 151 174 2,200 -885 Descending Atlanta Center
Wed 07:31:33 PM 33.6017 -86.7497 178° South 121 139 1,200 -984 Descending Atlanta Center
Wed 07:33:00 PM 33.5639 -86.7523 180° South  Level Estimated
Wed 07:40:00 PM 33.5639 -86.7523 180° South  Level Estimated

Login

Don't have an account? Register now (free) for customized features, flight alerts, and more!